sensor_id;sensor_type;location;lat;lon;timestamp;P1;durP1;ratioP1;P2;durP2;ratioP2
79460;SDS011;68929;42.666;23.324;2023-10-08T00:02:08;9.27;;;6.13;;
79460;SDS011;68929;42.666;23.324;2023-10-08T00:04:35;9.73;;;6.80;;
79460;SDS011;68929;42.666;23.324;2023-10-08T00:07:06;11.50;;;6.57;;
79460;SDS011;68929;42.666;23.324;2023-10-08T00:09:32;9.70;;;6.55;;
79460;SDS011;68929;42.666;23.324;2023-10-08T00:12:01;7.28;;;5.30;;
79460;SDS011;68929;42.666;23.324;2023-10-08T00:14:27;7.20;;;5.20;;
79460;SDS011;68929;42.666;23.324;2023-10-08T00:16:53;6.72;;;5.28;;
79460;SDS011;68929;42.666;23.324;2023-10-08T00:19:18;8.40;;;5.50;;
79460;SDS011;68929;42.666;23.324;2023-10-08T00:21:44;7.10;;;4.97;;
79460;SDS011;68929;42.666;23.324;2023-10-08T00:24:10;8.50;;;5.18;;
79460;SDS011;68929;42.666;23.324;2023-10-08T00:26:39;9.45;;;5.55;;
79460;SDS011;68929;42.666;23.324;2023-10-08T00:29:08;7.85;;;5.70;;
79460;SDS011;68929;42.666;23.324;2023-10-08T00:31:41;8.20;;;5.60;;
79460;SDS011;68929;42.666;23.324;2023-10-08T00:34:10;7.68;;;5.20;;
79460;SDS011;68929;42.666;23.324;2023-10-08T00:36:39;8.05;;;6.00;;
79460;SDS011;68929;42.666;23.324;2023-10-08T00:39:06;7.85;;;5.10;;
79460;SDS011;68929;42.666;23.324;2023-10-08T00:41:55;8.30;;;5.88;;
79460;SDS011;68929;42.666;23.324;2023-10-08T00:44:23;8.43;;;5.95;;
79460;SDS011;68929;42.666;23.324;2023-10-08T00:46:54;7.18;;;5.43;;
79460;SDS011;68929;42.666;23.324;2023-10-08T00:49:26;8.52;;;6.28;;
79460;SDS011;68929;42.666;23.324;2023-10-08T00:52:08;9.00;;;6.40;;
79460;SDS011;68929;42.666;23.324;2023-10-08T00:54:35;8.32;;;5.43;;
79460;SDS011;68929;42.666;23.324;2023-10-08T00:57:25;11.30;;;5.53;;
79460;SDS011;68929;42.666;23.324;2023-10-08T00:59:53;10.35;;;6.32;;
79460;SDS011;68929;42.666;23.324;2023-10-08T01:02:19;9.98;;;5.88;;
79460;SDS011;68929;42.666;23.324;2023-10-08T01:04:51;10.40;;;5.88;;
79460;SDS011;68929;42.666;23.324;2023-10-08T01:07:17;8.05;;;5.53;;
79460;SDS011;68929;42.666;23.324;2023-10-08T01:09:44;7.60;;;5.03;;
79460;SDS011;68929;42.666;23.324;2023-10-08T01:12:22;8.88;;;6.15;;
79460;SDS011;68929;42.666;23.324;2023-10-08T01:14:53;8.52;;;5.95;;
79460;SDS011;68929;42.666;23.324;2023-10-08T01:17:19;8.00;;;5.70;;
79460;SDS011;68929;42.666;23.324;2023-10-08T01:19:49;9.70;;;5.82;;
79460;SDS011;68929;42.666;23.324;2023-10-08T01:22:20;9.90;;;5.70;;
79460;SDS011;68929;42.666;23.324;2023-10-08T01:24:49;8.75;;;6.22;;
79460;SDS011;68929;42.666;23.324;2023-10-08T01:27:16;11.00;;;5.07;;
79460;SDS011;68929;42.666;23.324;2023-10-08T01:29:52;8.32;;;5.63;;
79460;SDS011;68929;42.666;23.324;2023-10-08T01:32:18;8.77;;;5.70;;
79460;SDS011;68929;42.666;23.324;2023-10-08T01:34:47;9.00;;;5.50;;
79460;SDS011;68929;42.666;23.324;2023-10-08T01:37:15;8.35;;;6.05;;
79460;SDS011;68929;42.666;23.324;2023-10-08T01:39:47;8.18;;;5.78;;
79460;SDS011;68929;42.666;23.324;2023-10-08T01:42:15;8.82;;;5.95;;
79460;SDS011;68929;42.666;23.324;2023-10-08T01:44:45;8.13;;;5.18;;
79460;SDS011;68929;42.666;23.324;2023-10-08T01:47:19;7.50;;;5.40;;
79460;SDS011;68929;42.666;23.324;2023-10-08T01:49:44;8.77;;;5.97;;
79460;SDS011;68929;42.666;23.324;2023-10-08T01:52:11;10.65;;;6.50;;
79460;SDS011;68929;42.666;23.324;2023-10-08T01:54:46;7.85;;;5.55;;
79460;SDS011;68929;42.666;23.324;2023-10-08T01:57:13;9.48;;;6.25;;
79460;SDS011;68929;42.666;23.324;2023-10-08T01:59:39;9.02;;;5.85;;
79460;SDS011;68929;42.666;23.324;2023-10-08T02:02:05;7.38;;;5.15;;
79460;SDS011;68929;42.666;23.324;2023-10-08T02:04:34;9.20;;;5.72;;
79460;SDS011;68929;42.666;23.324;2023-10-08T02:07:03;8.23;;;5.85;;
79460;SDS011;68929;42.666;23.324;2023-10-08T02:09:29;9.73;;;5.57;;
79460;SDS011;68929;42.666;23.324;2023-10-08T02:11:55;9.65;;;5.40;;
79460;SDS011;68929;42.666;23.324;2023-10-08T02:14:22;7.47;;;5.22;;
79460;SDS011;68929;42.666;23.324;2023-10-08T02:16:48;8.65;;;5.72;;
79460;SDS011;68929;42.666;23.324;2023-10-08T02:19:14;8.10;;;4.93;;
79460;SDS011;68929;42.666;23.324;2023-10-08T02:21:43;9.48;;;5.32;;
79460;SDS011;68929;42.666;23.324;2023-10-08T02:24:11;9.68;;;5.80;;
79460;SDS011;68929;42.666;23.324;2023-10-08T02:26:38;10.00;;;6.38;;
79460;SDS011;68929;42.666;23.324;2023-10-08T02:29:04;9.27;;;5.32;;
79460;SDS011;68929;42.666;23.324;2023-10-08T02:31:39;8.65;;;5.43;;
79460;SDS011;68929;42.666;23.324;2023-10-08T02:34:06;7.85;;;5.40;;
79460;SDS011;68929;42.666;23.324;2023-10-08T02:36:35;9.25;;;5.93;;
79460;SDS011;68929;42.666;23.324;2023-10-08T02:39:05;10.30;;;5.88;;
79460;SDS011;68929;42.666;23.324;2023-10-08T02:41:39;8.20;;;5.70;;
79460;SDS011;68929;42.666;23.324;2023-10-08T02:44:10;6.80;;;5.05;;
79460;SDS011;68929;42.666;23.324;2023-10-08T02:46:38;7.70;;;5.10;;
79460;SDS011;68929;42.666;23.324;2023-10-08T02:49:08;8.18;;;5.50;;
79460;SDS011;68929;42.666;23.324;2023-10-08T02:51:38;7.97;;;5.30;;
79460;SDS011;68929;42.666;23.324;2023-10-08T02:54:09;8.75;;;5.90;;
79460;SDS011;68929;42.666;23.324;2023-10-08T02:56:52;9.23;;;5.47;;
79460;SDS011;68929;42.666;23.324;2023-10-08T02:59:22;8.07;;;5.20;;
79460;SDS011;68929;42.666;23.324;2023-10-08T03:01:49;8.55;;;4.97;;
79460;SDS011;68929;42.666;23.324;2023-10-08T03:04:17;7.03;;;5.13;;
79460;SDS011;68929;42.666;23.324;2023-10-08T03:06:46;8.45;;;5.72;;
79460;SDS011;68929;42.666;23.324;2023-10-08T03:09:19;7.03;;;5.45;;
79460;SDS011;68929;42.666;23.324;2023-10-08T03:11:57;11.18;;;5.82;;
79460;SDS011;68929;42.666;23.324;2023-10-08T03:14:23;8.82;;;5.63;;
79460;SDS011;68929;42.666;23.324;2023-10-08T03:16:53;10.82;;;6.45;;
79460;SDS011;68929;42.666;23.324;2023-10-08T03:19:32;9.30;;;5.70;;
79460;SDS011;68929;42.666;23.324;2023-10-08T03:21:57;10.10;;;5.50;;
79460;SDS011;68929;42.666;23.324;2023-10-08T03:24:23;9.40;;;5.72;;
79460;SDS011;68929;42.666;23.324;2023-10-08T03:26:56;8.48;;;5.80;;
79460;SDS011;68929;42.666;23.324;2023-10-08T03:29:34;7.47;;;5.75;;
79460;SDS011;68929;42.666;23.324;2023-10-08T03:32:09;7.60;;;5.30;;
79460;SDS011;68929;42.666;23.324;2023-10-08T03:34:47;9.27;;;5.20;;
79460;SDS011;68929;42.666;23.324;2023-10-08T03:37:15;10.18;;;5.85;;
79460;SDS011;68929;42.666;23.324;2023-10-08T03:39:48;9.18;;;5.90;;
79460;SDS011;68929;42.666;23.324;2023-10-08T03:42:21;7.57;;;5.45;;
79460;SDS011;68929;42.666;23.324;2023-10-08T03:44:50;9.77;;;5.75;;
79460;SDS011;68929;42.666;23.324;2023-10-08T03:47:17;9.25;;;5.50;;
79460;SDS011;68929;42.666;23.324;2023-10-08T03:49:47;9.05;;;4.90;;
79460;SDS011;68929;42.666;23.324;2023-10-08T03:52:15;8.02;;;5.50;;
79460;SDS011;68929;42.666;23.324;2023-10-08T03:54:42;10.85;;;5.57;;
79460;SDS011;68929;42.666;23.324;2023-10-08T03:57:13;11.93;;;5.88;;
79460;SDS011;68929;42.666;23.324;2023-10-08T03:59:50;9.27;;;5.88;;
79460;SDS011;68929;42.666;23.324;2023-10-08T04:02:20;7.97;;;5.40;;
79460;SDS011;68929;42.666;23.324;2023-10-08T04:04:49;10.82;;;6.05;;
79460;SDS011;68929;42.666;23.324;2023-10-08T04:07:37;7.50;;;5.40;;
79460;SDS011;68929;42.666;23.324;2023-10-08T04:10:38;8.88;;;5.25;;
79460;SDS011;68929;42.666;23.324;2023-10-08T04:13:04;9.23;;;6.18;;
79460;SDS011;68929;42.666;23.324;2023-10-08T04:15:34;10.40;;;5.55;;
79460;SDS011;68929;42.666;23.324;2023-10-08T04:18:09;10.20;;;5.60;;
79460;SDS011;68929;42.666;23.324;2023-10-08T04:20:35;9.27;;;5.72;;
79460;SDS011;68929;42.666;23.324;2023-10-08T04:23:05;8.32;;;5.35;;
79460;SDS011;68929;42.666;23.324;2023-10-08T04:25:46;7.50;;;5.00;;
79460;SDS011;68929;42.666;23.324;2023-10-08T04:28:12;8.18;;;5.50;;
79460;SDS011;68929;42.666;23.324;2023-10-08T04:30:39;5.85;;;5.00;;
79460;SDS011;68929;42.666;23.324;2023-10-08T04:33:07;9.00;;;5.47;;
79460;SDS011;68929;42.666;23.324;2023-10-08T04:35:41;9.90;;;5.38;;
79460;SDS011;68929;42.666;23.324;2023-10-08T04:38:14;9.90;;;6.32;;
79460;SDS011;68929;42.666;23.324;2023-10-08T04:40:43;9.45;;;6.18;;
79460;SDS011;68929;42.666;23.324;2023-10-08T04:43:18;8.57;;;5.80;;
79460;SDS011;68929;42.666;23.324;2023-10-08T04:45:50;7.55;;;5.47;;
79460;SDS011;68929;42.666;23.324;2023-10-08T04:48:16;8.60;;;5.55;;
79460;SDS011;68929;42.666;23.324;2023-10-08T04:50:46;9.77;;;5.72;;
79460;SDS011;68929;42.666;23.324;2023-10-08T04:53:30;9.65;;;5.55;;
79460;SDS011;68929;42.666;23.324;2023-10-08T04:55:59;8.85;;;5.88;;
79460;SDS011;68929;42.666;23.324;2023-10-08T04:58:34;11.20;;;5.60;;
79460;SDS011;68929;42.666;23.324;2023-10-08T05:01:05;8.23;;;5.38;;
79460;SDS011;68929;42.666;23.324;2023-10-08T05:03:43;10.23;;;6.10;;
79460;SDS011;68929;42.666;23.324;2023-10-08T05:06:25;9.93;;;5.93;;
79460;SDS011;68929;42.666;23.324;2023-10-08T05:09:33;8.77;;;5.47;;
79460;SDS011;68929;42.666;23.324;2023-10-08T05:12:10;9.35;;;5.00;;
79460;SDS011;68929;42.666;23.324;2023-10-08T05:14:55;9.95;;;5.40;;
79460;SDS011;68929;42.666;23.324;2023-10-08T05:17:34;11.77;;;5.80;;
79460;SDS011;68929;42.666;23.324;2023-10-08T05:20:11;7.60;;;5.53;;
79460;SDS011;68929;42.666;23.324;2023-10-08T05:22:55;8.02;;;6.03;;
79460;SDS011;68929;42.666;23.324;2023-10-08T05:25:43;10.38;;;5.20;;
79460;SDS011;68929;42.666;23.324;2023-10-08T05:28:36;6.18;;;4.93;;
79460;SDS011;68929;42.666;23.324;2023-10-08T05:31:26;8.10;;;5.05;;
79460;SDS011;68929;42.666;23.324;2023-10-08T05:34:07;8.85;;;5.40;;
79460;SDS011;68929;42.666;23.324;2023-10-08T05:36:51;7.18;;;5.45;;
79460;SDS011;68929;42.666;23.324;2023-10-08T05:39:37;10.57;;;5.60;;
79460;SDS011;68929;42.666;23.324;2023-10-08T05:42:19;9.20;;;5.82;;
79460;SDS011;68929;42.666;23.324;2023-10-08T05:44:53;7.25;;;5.60;;
79460;SDS011;68929;42.666;23.324;2023-10-08T05:47:34;9.93;;;6.20;;
79460;SDS011;68929;42.666;23.324;2023-10-08T05:49:59;12.35;;;5.82;;
79460;SDS011;68929;42.666;23.324;2023-10-08T05:52:54;7.22;;;5.18;;
79460;SDS011;68929;42.666;23.324;2023-10-08T05:55:23;9.43;;;5.38;;
79460;SDS011;68929;42.666;23.324;2023-10-08T05:57:53;10.45;;;5.72;;
79460;SDS011;68929;42.666;23.324;2023-10-08T06:00:46;9.43;;;5.45;;
79460;SDS011;68929;42.666;23.324;2023-10-08T06:03:18;8.52;;;5.72;;
79460;SDS011;68929;42.666;23.324;2023-10-08T06:05:57;9.75;;;6.25;;
79460;SDS011;68929;42.666;23.324;2023-10-08T06:08:36;10.60;;;6.07;;
79460;SDS011;68929;42.666;23.324;2023-10-08T06:11:17;12.55;;;7.15;;
79460;SDS011;68929;42.666;23.324;2023-10-08T06:14:01;12.27;;;6.47;;
79460;SDS011;68929;42.666;23.324;2023-10-08T06:16:28;9.98;;;5.53;;
79460;SDS011;68929;42.666;23.324;2023-10-08T06:19:06;8.32;;;5.72;;
79460;SDS011;68929;42.666;23.324;2023-10-08T06:21:33;9.50;;;5.70;;
79460;SDS011;68929;42.666;23.324;2023-10-08T06:23:59;12.20;;;7.10;;
79460;SDS011;68929;42.666;23.324;2023-10-08T06:26:24;10.95;;;7.00;;
79460;SDS011;68929;42.666;23.324;2023-10-08T06:28:50;14.80;;;6.30;;
79460;SDS011;68929;42.666;23.324;2023-10-08T06:31:22;10.43;;;5.68;;
79460;SDS011;68929;42.666;23.324;2023-10-08T06:33:50;12.80;;;6.68;;
79460;SDS011;68929;42.666;23.324;2023-10-08T06:36:15;10.05;;;5.35;;
79460;SDS011;68929;42.666;23.324;2023-10-08T06:38:45;9.45;;;6.57;;
79460;SDS011;68929;42.666;23.324;2023-10-08T06:41:15;10.77;;;6.72;;
79460;SDS011;68929;42.666;23.324;2023-10-08T06:43:47;12.25;;;6.40;;
79460;SDS011;68929;42.666;23.324;2023-10-08T06:46:27;15.13;;;7.45;;
79460;SDS011;68929;42.666;23.324;2023-10-08T06:48:57;9.52;;;6.07;;
79460;SDS011;68929;42.666;23.324;2023-10-08T06:51:26;13.07;;;6.00;;
79460;SDS011;68929;42.666;23.324;2023-10-08T06:53:51;13.18;;;7.22;;
79460;SDS011;68929;42.666;23.324;2023-10-08T06:56:17;11.45;;;6.22;;
79460;SDS011;68929;42.666;23.324;2023-10-08T06:58:44;9.85;;;5.72;;
79460;SDS011;68929;42.666;23.324;2023-10-08T07:01:18;11.63;;;6.65;;
79460;SDS011;68929;42.666;23.324;2023-10-08T07:03:49;11.02;;;5.43;;
79460;SDS011;68929;42.666;23.324;2023-10-08T07:06:16;8.68;;;5.45;;
79460;SDS011;68929;42.666;23.324;2023-10-08T07:08:56;9.00;;;5.78;;
79460;SDS011;68929;42.666;23.324;2023-10-08T07:11:25;11.25;;;7.65;;
79460;SDS011;68929;42.666;23.324;2023-10-08T07:13:54;7.70;;;5.32;;
79460;SDS011;68929;42.666;23.324;2023-10-08T07:16:20;8.32;;;6.20;;
79460;SDS011;68929;42.666;23.324;2023-10-08T07:18:46;11.38;;;6.63;;
79460;SDS011;68929;42.666;23.324;2023-10-08T07:21:20;9.40;;;5.70;;
79460;SDS011;68929;42.666;23.324;2023-10-08T07:23:53;12.75;;;7.25;;
79460;SDS011;68929;42.666;23.324;2023-10-08T07:26:47;11.45;;;6.72;;
79460;SDS011;68929;42.666;23.324;2023-10-08T07:29:17;15.50;;;5.85;;
79460;SDS011;68929;42.666;23.324;2023-10-08T07:31:43;12.65;;;8.38;;
79460;SDS011;68929;42.666;23.324;2023-10-08T07:34:18;17.27;;;8.68;;
79460;SDS011;68929;42.666;23.324;2023-10-08T07:36:50;16.30;;;8.45;;
79460;SDS011;68929;42.666;23.324;2023-10-08T07:39:17;16.73;;;8.57;;
79460;SDS011;68929;42.666;23.324;2023-10-08T07:42:00;15.85;;;7.43;;
79460;SDS011;68929;42.666;23.324;2023-10-08T07:44:30;11.45;;;7.88;;
79460;SDS011;68929;42.666;23.324;2023-10-08T07:46:57;10.15;;;6.55;;
79460;SDS011;68929;42.666;23.324;2023-10-08T07:49:23;12.32;;;7.82;;
79460;SDS011;68929;42.666;23.324;2023-10-08T07:51:50;11.45;;;7.18;;
79460;SDS011;68929;42.666;23.324;2023-10-08T07:54:28;9.02;;;5.32;;
79460;SDS011;68929;42.666;23.324;2023-10-08T07:56:53;13.57;;;7.68;;
79460;SDS011;68929;42.666;23.324;2023-10-08T07:59:34;13.93;;;6.15;;
79460;SDS011;68929;42.666;23.324;2023-10-08T08:02:12;9.27;;;5.05;;
79460;SDS011;68929;42.666;23.324;2023-10-08T08:04:43;9.20;;;5.32;;
79460;SDS011;68929;42.666;23.324;2023-10-08T08:07:10;5.88;;;4.18;;
79460;SDS011;68929;42.666;23.324;2023-10-08T08:09:41;9.60;;;4.38;;
79460;SDS011;68929;42.666;23.324;2023-10-08T08:12:26;9.32;;;4.25;;
79460;SDS011;68929;42.666;23.324;2023-10-08T08:14:57;8.82;;;4.57;;
79460;SDS011;68929;42.666;23.324;2023-10-08T08:17:23;8.55;;;4.70;;
79460;SDS011;68929;42.666;23.324;2023-10-08T08:19:51;8.45;;;4.72;;
79460;SDS011;68929;42.666;23.324;2023-10-08T08:25:07;9.18;;;4.72;;
79460;SDS011;68929;42.666;23.324;2023-10-08T08:27:40;7.97;;;4.57;;
79460;SDS011;68929;42.666;23.324;2023-10-08T08:30:09;11.48;;;5.05;;
79460;SDS011;68929;42.666;23.324;2023-10-08T08:32:38;6.70;;;4.28;;
79460;SDS011;68929;42.666;23.324;2023-10-08T08:35:10;8.75;;;4.72;;
79460;SDS011;68929;42.666;23.324;2023-10-08T08:37:36;9.30;;;4.90;;
79460;SDS011;68929;42.666;23.324;2023-10-08T08:40:06;6.95;;;4.75;;
79460;SDS011;68929;42.666;23.324;2023-10-08T08:42:42;9.25;;;5.05;;
79460;SDS011;68929;42.666;23.324;2023-10-08T08:45:10;7.75;;;5.63;;
79460;SDS011;68929;42.666;23.324;2023-10-08T08:47:39;7.82;;;4.22;;
79460;SDS011;68929;42.666;23.324;2023-10-08T08:50:09;8.30;;;5.00;;
79460;SDS011;68929;42.666;23.324;2023-10-08T08:52:35;7.30;;;5.25;;
79460;SDS011;68929;42.666;23.324;2023-10-08T08:55:05;9.43;;;5.38;;
79460;SDS011;68929;42.666;23.324;2023-10-08T08:57:36;10.50;;;5.53;;
79460;SDS011;68929;42.666;23.324;2023-10-08T09:00:05;9.32;;;5.60;;
79460;SDS011;68929;42.666;23.324;2023-10-08T09:02:35;9.73;;;5.30;;
79460;SDS011;68929;42.666;23.324;2023-10-08T09:05:02;10.13;;;5.47;;
79460;SDS011;68929;42.666;23.324;2023-10-08T09:07:51;9.05;;;5.40;;
79460;SDS011;68929;42.666;23.324;2023-10-08T09:10:34;9.18;;;5.28;;
79460;SDS011;68929;42.666;23.324;2023-10-08T09:13:21;10.65;;;5.60;;
79460;SDS011;68929;42.666;23.324;2023-10-08T09:15:48;8.52;;;4.88;;
79460;SDS011;68929;42.666;23.324;2023-10-08T09:18:28;10.13;;;5.55;;
79460;SDS011;68929;42.666;23.324;2023-10-08T09:20:57;9.98;;;5.38;;
79460;SDS011;68929;42.666;23.324;2023-10-08T09:23:36;9.52;;;5.40;;
79460;SDS011;68929;42.666;23.324;2023-10-08T09:26:08;10.65;;;5.05;;
79460;SDS011;68929;42.666;23.324;2023-10-08T09:28:34;8.45;;;5.80;;
79460;SDS011;68929;42.666;23.324;2023-10-08T09:31:02;12.23;;;5.20;;
79460;SDS011;68929;42.666;23.324;2023-10-08T09:33:29;10.65;;;5.25;;
79460;SDS011;68929;42.666;23.324;2023-10-08T09:35:55;8.68;;;5.00;;
79460;SDS011;68929;42.666;23.324;2023-10-08T09:38:22;10.75;;;5.38;;
79460;SDS011;68929;42.666;23.324;2023-10-08T09:40:49;12.90;;;5.32;;
79460;SDS011;68929;42.666;23.324;2023-10-08T09:43:15;8.25;;;5.70;;
79460;SDS011;68929;42.666;23.324;2023-10-08T09:45:51;7.20;;;5.75;;
79460;SDS011;68929;42.666;23.324;2023-10-08T09:48:20;9.43;;;5.75;;
79460;SDS011;68929;42.666;23.324;2023-10-08T09:50:50;9.90;;;5.53;;
79460;SDS011;68929;42.666;23.324;2023-10-08T09:53:18;9.20;;;5.97;;
79460;SDS011;68929;42.666;23.324;2023-10-08T09:55:54;7.95;;;4.97;;
79460;SDS011;68929;42.666;23.324;2023-10-08T09:58:23;8.02;;;4.95;;
79460;SDS011;68929;42.666;23.324;2023-10-08T10:00:53;9.75;;;4.85;;
79460;SDS011;68929;42.666;23.324;2023-10-08T10:03:22;10.10;;;4.90;;
79460;SDS011;68929;42.666;23.324;2023-10-08T10:05:50;10.38;;;5.05;;
79460;SDS011;68929;42.666;23.324;2023-10-08T10:08:16;9.63;;;4.80;;
79460;SDS011;68929;42.666;23.324;2023-10-08T10:10:41;10.80;;;5.35;;
79460;SDS011;68929;42.666;23.324;2023-10-08T10:13:12;9.05;;;4.30;;
79460;SDS011;68929;42.666;23.324;2023-10-08T10:15:39;9.15;;;4.88;;
79460;SDS011;68929;42.666;23.324;2023-10-08T10:18:13;9.57;;;5.25;;
79460;SDS011;68929;42.666;23.324;2023-10-08T10:20:44;7.20;;;4.70;;
79460;SDS011;68929;42.666;23.324;2023-10-08T10:31:37;6.32;;;4.28;;
79460;SDS011;68929;42.666;23.324;2023-10-08T10:34:09;8.18;;;4.85;;
79460;SDS011;68929;42.666;23.324;2023-10-08T10:36:37;10.68;;;3.70;;
79460;SDS011;68929;42.666;23.324;2023-10-08T10:39:07;9.90;;;4.15;;
79460;SDS011;68929;42.666;23.324;2023-10-08T10:41:45;9.18;;;4.30;;
79460;SDS011;68929;42.666;23.324;2023-10-08T10:44:15;10.07;;;4.47;;
79460;SDS011;68929;42.666;23.324;2023-10-08T10:46:45;11.70;;;4.80;;
79460;SDS011;68929;42.666;23.324;2023-10-08T10:49:20;7.05;;;4.20;;
79460;SDS011;68929;42.666;23.324;2023-10-08T10:52:01;6.63;;;3.92;;
79460;SDS011;68929;42.666;23.324;2023-10-08T10:54:30;11.52;;;4.88;;
79460;SDS011;68929;42.666;23.324;2023-10-08T10:59:30;9.75;;;4.72;;
79460;SDS011;68929;42.666;23.324;2023-10-08T11:02:02;8.35;;;4.30;;
79460;SDS011;68929;42.666;23.324;2023-10-08T11:04:46;6.72;;;4.55;;
79460;SDS011;68929;42.666;23.324;2023-10-08T11:07:15;12.10;;;4.47;;
79460;SDS011;68929;42.666;23.324;2023-10-08T11:09:43;10.02;;;4.15;;
79460;SDS011;68929;42.666;23.324;2023-10-08T11:12:10;7.32;;;4.60;;
79460;SDS011;68929;42.666;23.324;2023-10-08T11:14:41;6.70;;;4.13;;
79460;SDS011;68929;42.666;23.324;2023-10-08T11:17:17;7.90;;;4.43;;
79460;SDS011;68929;42.666;23.324;2023-10-08T11:19:47;9.05;;;4.25;;
79460;SDS011;68929;42.666;23.324;2023-10-08T11:22:13;6.07;;;3.97;;
79460;SDS011;68929;42.666;23.324;2023-10-08T11:24:44;8.60;;;4.70;;
79460;SDS011;68929;42.666;23.324;2023-10-08T11:27:16;8.00;;;4.00;;
79460;SDS011;68929;42.666;23.324;2023-10-08T11:29:53;7.25;;;4.45;;
79460;SDS011;68929;42.666;23.324;2023-10-08T11:32:23;7.90;;;4.03;;
79460;SDS011;68929;42.666;23.324;2023-10-08T11:34:57;12.40;;;4.22;;
79460;SDS011;68929;42.666;23.324;2023-10-08T11:37:44;14.35;;;4.65;;
79460;SDS011;68929;42.666;23.324;2023-10-08T11:40:21;13.57;;;4.60;;
79460;SDS011;68929;42.666;23.324;2023-10-08T11:42:53;12.52;;;4.88;;
79460;SDS011;68929;42.666;23.324;2023-10-08T11:47:51;11.75;;;4.97;;
79460;SDS011;68929;42.666;23.324;2023-10-08T11:50:28;11.05;;;4.38;;
79460;SDS011;68929;42.666;23.324;2023-10-08T11:53:00;14.60;;;5.00;;
79460;SDS011;68929;42.666;23.324;2023-10-08T11:57:54;17.15;;;5.15;;
79460;SDS011;68929;42.666;23.324;2023-10-08T12:00:19;16.70;;;5.03;;
79460;SDS011;68929;42.666;23.324;2023-10-08T12:02:48;16.35;;;5.20;;
79460;SDS011;68929;42.666;23.324;2023-10-08T12:05:14;19.02;;;5.18;;
79460;SDS011;68929;42.666;23.324;2023-10-08T12:07:48;15.40;;;4.80;;
79460;SDS011;68929;42.666;23.324;2023-10-08T12:10:16;13.07;;;4.53;;
79460;SDS011;68929;42.666;23.324;2023-10-08T12:15:13;12.65;;;4.45;;
79460;SDS011;68929;42.666;23.324;2023-10-08T12:20:18;14.60;;;5.00;;
79460;SDS011;68929;42.666;23.324;2023-10-08T12:22:51;12.02;;;4.70;;
79460;SDS011;68929;42.666;23.324;2023-10-08T12:25:17;9.73;;;4.65;;
79460;SDS011;68929;42.666;23.324;2023-10-08T12:27:42;10.77;;;4.45;;
79460;SDS011;68929;42.666;23.324;2023-10-08T12:30:08;15.27;;;4.75;;
79460;SDS011;68929;42.666;23.324;2023-10-08T12:32:36;12.13;;;3.88;;
79460;SDS011;68929;42.666;23.324;2023-10-08T12:35:10;17.88;;;4.78;;
79460;SDS011;68929;42.666;23.324;2023-10-08T12:37:40;13.90;;;4.55;;
79460;SDS011;68929;42.666;23.324;2023-10-08T12:40:09;21.48;;;5.20;;
79460;SDS011;68929;42.666;23.324;2023-10-08T12:42:47;19.80;;;4.78;;
79460;SDS011;68929;42.666;23.324;2023-10-08T12:45:15;14.40;;;4.28;;
79460;SDS011;68929;42.666;23.324;2023-10-08T12:47:45;14.80;;;4.90;;
79460;SDS011;68929;42.666;23.324;2023-10-08T12:50:17;14.48;;;4.32;;
79460;SDS011;68929;42.666;23.324;2023-10-08T12:53:07;11.68;;;5.13;;
79460;SDS011;68929;42.666;23.324;2023-10-08T12:55:34;12.38;;;4.65;;
79460;SDS011;68929;42.666;23.324;2023-10-08T12:58:04;12.77;;;4.10;;
79460;SDS011;68929;42.666;23.324;2023-10-08T13:00:34;11.70;;;4.93;;
79460;SDS011;68929;42.666;23.324;2023-10-08T13:03:03;12.00;;;4.32;;
79460;SDS011;68929;42.666;23.324;2023-10-08T13:05:30;19.20;;;5.80;;
79460;SDS011;68929;42.666;23.324;2023-10-08T13:07:58;19.27;;;4.70;;
79460;SDS011;68929;42.666;23.324;2023-10-08T13:10:28;23.85;;;5.13;;
79460;SDS011;68929;42.666;23.324;2023-10-08T13:12:56;13.32;;;4.28;;
79460;SDS011;68929;42.666;23.324;2023-10-08T13:15:21;17.00;;;3.88;;
79460;SDS011;68929;42.666;23.324;2023-10-08T13:17:50;11.77;;;4.38;;
79460;SDS011;68929;42.666;23.324;2023-10-08T13:20:17;12.68;;;4.40;;
79460;SDS011;68929;42.666;23.324;2023-10-08T13:22:42;18.77;;;4.88;;
79460;SDS011;68929;42.666;23.324;2023-10-08T13:25:11;18.17;;;4.15;;
79460;SDS011;68929;42.666;23.324;2023-10-08T13:27:37;13.13;;;4.70;;
79460;SDS011;68929;42.666;23.324;2023-10-08T13:30:07;9.55;;;3.92;;
79460;SDS011;68929;42.666;23.324;2023-10-08T13:32:34;11.60;;;3.92;;
79460;SDS011;68929;42.666;23.324;2023-10-08T13:35:02;13.65;;;4.50;;
79460;SDS011;68929;42.666;23.324;2023-10-08T13:37:29;9.90;;;4.43;;
79460;SDS011;68929;42.666;23.324;2023-10-08T13:39:56;13.93;;;4.07;;
79460;SDS011;68929;42.666;23.324;2023-10-08T13:42:22;11.45;;;3.17;;
79460;SDS011;68929;42.666;23.324;2023-10-08T13:44:47;17.85;;;4.25;;
79460;SDS011;68929;42.666;23.324;2023-10-08T13:47:14;11.52;;;4.47;;
79460;SDS011;68929;42.666;23.324;2023-10-08T13:49:41;15.15;;;4.97;;
79460;SDS011;68929;42.666;23.324;2023-10-08T13:52:08;11.10;;;3.95;;
79460;SDS011;68929;42.666;23.324;2023-10-08T13:54:34;13.63;;;4.22;;
79460;SDS011;68929;42.666;23.324;2023-10-08T13:57:04;13.75;;;4.55;;
79460;SDS011;68929;42.666;23.324;2023-10-08T13:59:33;12.80;;;5.18;;
79460;SDS011;68929;42.666;23.324;2023-10-08T14:01:59;9.85;;;3.80;;
79460;SDS011;68929;42.666;23.324;2023-10-08T14:04:26;13.32;;;4.47;;
79460;SDS011;68929;42.666;23.324;2023-10-08T14:06:55;13.82;;;4.40;;
79460;SDS011;68929;42.666;23.324;2023-10-08T14:09:23;12.65;;;5.10;;
79460;SDS011;68929;42.666;23.324;2023-10-08T14:12:18;16.42;;;4.47;;
79460;SDS011;68929;42.666;23.324;2023-10-08T14:14:44;13.80;;;4.55;;
79460;SDS011;68929;42.666;23.324;2023-10-08T14:17:09;7.93;;;4.03;;
79460;SDS011;68929;42.666;23.324;2023-10-08T14:19:40;10.43;;;4.78;;
79460;SDS011;68929;42.666;23.324;2023-10-08T14:22:11;13.27;;;4.45;;
79460;SDS011;68929;42.666;23.324;2023-10-08T14:24:39;13.35;;;4.55;;
79460;SDS011;68929;42.666;23.324;2023-10-08T14:27:04;12.82;;;3.90;;
79460;SDS011;68929;42.666;23.324;2023-10-08T14:29:35;13.27;;;4.60;;
79460;SDS011;68929;42.666;23.324;2023-10-08T14:32:03;20.25;;;4.93;;
79460;SDS011;68929;42.666;23.324;2023-10-08T14:34:33;17.23;;;4.40;;
79460;SDS011;68929;42.666;23.324;2023-10-08T14:37:08;22.02;;;4.57;;
79460;SDS011;68929;42.666;23.324;2023-10-08T14:39:53;16.40;;;4.80;;
79460;SDS011;68929;42.666;23.324;2023-10-08T14:42:37;29.15;;;5.20;;
79460;SDS011;68929;42.666;23.324;2023-10-08T14:45:25;15.15;;;4.57;;
79460;SDS011;68929;42.666;23.324;2023-10-08T14:47:52;14.38;;;4.68;;
79460;SDS011;68929;42.666;23.324;2023-10-08T14:50:22;13.23;;;4.10;;
79460;SDS011;68929;42.666;23.324;2023-10-08T14:52:48;18.88;;;4.72;;
79460;SDS011;68929;42.666;23.324;2023-10-08T14:55:15;21.20;;;4.70;;
79460;SDS011;68929;42.666;23.324;2023-10-08T14:57:46;15.52;;;4.30;;
79460;SDS011;68929;42.666;23.324;2023-10-08T15:00:12;12.05;;;3.15;;
79460;SDS011;68929;42.666;23.324;2023-10-08T15:02:38;24.02;;;5.38;;
79460;SDS011;68929;42.666;23.324;2023-10-08T15:05:09;14.43;;;4.90;;
79460;SDS011;68929;42.666;23.324;2023-10-08T15:07:36;20.48;;;4.90;;
79460;SDS011;68929;42.666;23.324;2023-10-08T15:10:02;16.48;;;4.90;;
79460;SDS011;68929;42.666;23.324;2023-10-08T15:12:28;16.88;;;4.60;;
79460;SDS011;68929;42.666;23.324;2023-10-08T15:14:53;14.35;;;4.20;;
79460;SDS011;68929;42.666;23.324;2023-10-08T15:17:19;15.63;;;5.28;;